createdAt,value
2018-07-26T05:01:26.063Z,95213.16
2018-07-26T05:06:45.992Z,95216.95
2018-07-26T05:11:50.095Z,95217.33
2018-07-26T05:16:53.447Z,95226.00
2018-07-26T05:21:57.549Z,95228.20
2018-07-26T05:27:00.886Z,95227.87
2018-07-26T05:32:04.987Z,95226.52
2018-07-26T05:37:08.340Z,95236.21
2018-07-26T05:42:11.671Z,95234.72
2018-07-26T05:47:15.003Z,95235.54
2018-07-26T05:52:18.346Z,95241.98
2018-07-26T05:57:21.682Z,95247.59
2018-07-26T06:02:25.790Z,95252.20
2018-07-26T06:07:29.895Z,95252.69
2018-07-26T06:12:33.230Z,95247.40
2018-07-26T06:17:36.576Z,95252.86
2018-07-26T06:22:40.687Z,95256.92
2018-07-26T06:27:44.024Z,95261.56
2018-07-26T06:32:48.119Z,95254.92
2018-07-26T06:37:51.456Z,95250.66
2018-07-26T06:42:55.550Z,95255.25
2018-07-26T06:47:58.879Z,95255.83
2018-07-26T06:53:02.256Z,95253.18
2018-07-26T06:58:05.638Z,95256.83
2018-07-26T07:03:08.969Z,95256.83
2018-07-26T07:08:12.303Z,95255.61
2018-07-26T07:13:15.667Z,95257.23
2018-07-26T07:18:19.759Z,95260.61
2018-07-26T07:23:23.208Z,95260.34
2018-07-26T07:28:27.334Z,95262.63
2018-07-26T07:33:31.442Z,95264.81
2018-07-26T07:38:35.174Z,95265.55
2018-07-26T07:43:38.542Z,95261.86
2018-07-26T07:48:41.979Z,95260.33
2018-07-26T07:53:45.415Z,95258.41
2018-07-26T07:58:48.850Z,95259.02
2018-07-26T08:03:52.975Z,95259.77
2018-07-26T08:08:57.074Z,95260.53
2018-07-26T08:14:00.430Z,95260.05
2018-07-26T08:19:04.651Z,95253.45
2018-07-26T08:24:08.888Z,95265.06
2018-07-26T08:29:12.222Z,95262.44
2018-07-26T08:34:15.583Z,95258.58
2018-07-26T08:39:19.030Z,95260.42
2018-07-26T08:44:22.989Z,95266.94
2018-07-26T08:49:26.354Z,95264.73
2018-07-26T08:54:29.940Z,95261.36
2018-07-26T08:59:33.303Z,95263.47
2018-07-26T09:04:36.641Z,95265.77
2018-07-26T09:09:40.218Z,95265.96
2018-07-26T09:14:43.898Z,95266.42
2018-07-26T09:19:47.390Z,95266.09
2018-07-26T09:24:51.458Z,95261.60
2018-07-26T09:29:54.782Z,95261.89
2018-07-26T09:34:58.136Z,95246.71
2018-07-26T09:40:02.237Z,95255.39
2018-07-26T09:45:05.575Z,95252.03
2018-07-26T09:50:09.674Z,95252.52
2018-07-26T09:55:13.010Z,95248.76
2018-07-26T10:00:16.388Z,95242.56
2018-07-26T10:05:19.686Z,95248.64
2018-07-26T10:10:23.015Z,95244.39
2018-07-26T10:15:26.346Z,95241.36
2018-07-26T10:20:29.814Z,95238.46
2018-07-26T10:25:33.162Z,95240.89
2018-07-26T10:30:36.603Z,95233.94
2018-07-26T10:35:40.062Z,95234.06
2018-07-26T10:40:43.395Z,95234.31
2018-07-26T10:45:46.727Z,95233.19
2018-07-26T10:50:50.068Z,95225.52
2018-07-26T10:55:54.194Z,95237.33
2018-07-26T11:00:57.530Z,95230.55
2018-07-26T11:06:00.862Z,95232.27
2018-07-26T11:11:04.226Z,95228.31
2018-07-26T11:16:07.555Z,95225.31
2018-07-26T11:21:10.889Z,95215.70
2018-07-26T11:26:14.227Z,95218.38
2018-07-26T11:31:17.667Z,95213.89
2018-07-26T11:36:21.023Z,95217.48
2018-07-26T11:41:24.373Z,95222.78
2018-07-26T11:46:27.694Z,95218.55
2018-07-26T11:51:31.033Z,95201.24
2018-07-26T11:56:35.135Z,95199.23
2018-07-26T12:01:38.493Z,95196.41
2018-07-26T12:06:41.820Z,95182.77
2018-07-26T12:11:45.146Z,95183.44
2018-07-26T12:16:48.483Z,95188.23
2018-07-26T12:21:51.828Z,95178.77
2018-07-26T12:26:55.221Z,95180.42
2018-07-26T12:31:58.539Z,95173.40
2018-07-26T12:37:01.877Z,95162.20
2018-07-26T12:42:05.236Z,95172.55
2018-07-26T12:47:08.608Z,95158.94
2018-07-26T12:52:11.945Z,95154.22
2018-07-26T12:57:15.289Z,95151.78
2018-07-26T13:02:18.623Z,95151.55
2018-07-26T13:07:21.962Z,95152.40
2018-07-26T13:12:25.347Z,95141.76
2018-07-26T13:17:28.657Z,95138.93
2018-07-26T13:22:32.799Z,95140.78
2018-07-26T13:27:36.998Z,95134.42
2018-07-26T13:32:40.366Z,95135.19
2018-07-26T13:37:43.731Z,95134.05
2018-07-26T13:42:47.080Z,95119.32
2018-07-26T13:47:51.179Z,95114.41
2018-07-26T13:52:54.543Z,95114.78
2018-07-26T13:57:57.907Z,95119.11
2018-07-26T14:03:01.370Z,95110.31
2018-07-26T14:08:04.727Z,95107.81
2018-07-26T14:13:08.064Z,95105.73
2018-07-26T14:18:12.189Z,95106.20
2018-07-26T14:23:16.315Z,95106.89
2018-07-26T14:28:19.898Z,95106.05
2018-07-26T14:33:23.331Z,95107.63
2018-07-26T14:38:26.659Z,95103.66
2018-07-26T14:43:30.780Z,95098.86
2018-07-26T14:48:34.131Z,95099.59
2018-07-26T14:53:37.470Z,95103.01
2018-07-26T14:58:40.848Z,95104.88
2018-07-26T15:03:44.164Z,95098.70
2018-07-26T15:08:48.290Z,95093.19
2018-07-26T15:13:52.390Z,95096.47
2018-07-26T15:18:55.762Z,95099.72
2018-07-26T15:23:59.095Z,95097.50
2018-07-26T15:29:02.447Z,95089.52
2018-07-26T15:34:05.885Z,95096.54
2018-07-26T15:39:09.228Z,95094.99
2018-07-26T15:44:12.591Z,95101.12
2018-07-26T15:49:16.717Z,95094.27
2018-07-26T15:54:20.078Z,95096.09
2018-07-26T15:59:23.410Z,95091.36
2018-07-26T16:04:27.535Z,95089.19
2018-07-26T16:09:30.874Z,95088.48
2018-07-26T16:14:34.211Z,95088.12
2018-07-26T16:19:38.307Z,95092.28
2018-07-26T16:24:41.639Z,95083.55
2018-07-26T16:29:44.966Z,95082.41
2018-07-26T16:34:49.067Z,95076.70
2018-07-26T16:39:52.421Z,95068.36
2018-07-26T16:44:56.583Z,95072.33
2018-07-26T16:49:59.919Z,95084.08
2018-07-26T16:55:05.062Z,95079.03
2018-07-26T17:00:08.483Z,95076.03
2018-07-26T17:05:11.852Z,95071.56
2018-07-26T17:10:15.996Z,95073.05
2018-07-26T17:15:20.097Z,95075.56
2018-07-26T17:20:23.429Z,95070.68
2018-07-26T17:25:26.826Z,95074.66
2018-07-26T17:30:33.062Z,95068.56
2018-07-26T17:36:04.216Z,95069.80
2018-07-26T17:41:09.818Z,95069.84
2018-07-26T17:46:13.404Z,95074.63
2018-07-26T17:51:17.055Z,95081.29
2018-07-26T17:56:27.504Z,95081.14
2018-07-26T18:01:31.254Z,95079.92
2018-07-26T18:06:35.922Z,95089.89
2018-07-26T18:11:40.556Z,95085.84
2018-07-26T18:16:44.007Z,95100.55
2018-07-26T18:21:47.409Z,95093.98
2018-07-26T18:26:51.009Z,95099.97
2018-07-26T18:31:54.376Z,95105.66
2018-07-26T18:36:57.710Z,95112.23
2018-07-26T18:42:01.106Z,95106.27
2018-07-26T18:47:04.595Z,95113.67
2018-07-26T18:52:09.240Z,95110.05
2018-07-26T18:57:13.474Z,95116.64
2018-07-26T19:02:16.893Z,95122.61
2018-07-26T19:07:20.733Z,95127.93
2018-07-26T19:12:24.296Z,95133.25
2018-07-26T19:17:27.795Z,95144.09
2018-07-26T19:22:31.192Z,95153.56
2018-07-26T19:27:44.234Z,95153.65
2018-07-26T19:32:47.866Z,95155.08
2018-07-26T19:37:51.542Z,95145.87
2018-07-26T19:42:55.662Z,95156.52
2018-07-26T19:47:59.039Z,95150.12
2018-07-26T19:53:03.620Z,95157.88
2018-07-26T19:58:07.207Z,95159.23
2018-07-26T20:03:10.555Z,95150.64
2018-07-26T20:08:14.688Z,95146.05
2018-07-26T20:13:18.053Z,95144.65
2018-07-26T20:18:21.379Z,95150.92
2018-07-26T20:23:24.723Z,95147.88
2018-07-26T20:28:28.827Z,95145.33
2018-07-26T20:33:32.159Z,95139.77
2018-07-26T20:38:35.494Z,95142.09
2018-07-26T20:43:38.830Z,95147.66
2018-07-26T20:48:42.200Z,95135.70
2018-07-26T20:53:45.520Z,95138.36
2018-07-26T20:58:49.620Z,95148.52
2018-07-26T21:03:53.008Z,95140.10
2018-07-26T21:08:56.353Z,95135.81
2018-07-26T21:13:59.679Z,95143.57
2018-07-26T21:19:03.015Z,95145.06
2018-07-26T21:24:07.170Z,95143.97
2018-07-26T21:29:10.479Z,95139.68
2018-07-26T21:34:14.174Z,95139.45
2018-07-26T21:39:18.299Z,95143.88
2018-07-26T21:44:22.403Z,95140.22
2018-07-26T21:49:26.241Z,95137.59
2018-07-26T21:54:29.510Z,95134.23
2018-07-26T21:59:32.855Z,95141.20
2018-07-26T22:04:36.337Z,95138.34
2018-07-26T22:09:39.670Z,95133.14
2018-07-26T22:14:43.015Z,95151.41
2018-07-26T22:19:46.362Z,95144.48
2018-07-26T22:24:49.698Z,95157.87
2018-07-26T22:29:53.037Z,95162.98
